sensor_id;sensor_type;location;lat;lon;timestamp;pressure;altitude;pressure_sealevel;temperature;humidity
63819;BME280;49970;54.976;73.248;2024-01-30T00:00:05;101318.25;;;-13.53;83.61
63819;BME280;49970;54.976;73.248;2024-01-30T00:03:11;101321.72;;;-13.51;82.74
63819;BME280;49970;54.976;73.248;2024-01-30T00:06:23;101323.38;;;-13.51;83.66
63819;BME280;49970;54.976;73.248;2024-01-30T00:08:49;101321.72;;;-13.51;83.78
63819;BME280;49970;54.976;73.248;2024-01-30T00:11:16;101323.47;;;-13.50;83.08
63819;BME280;49970;54.976;73.248;2024-01-30T00:13:42;101326.06;;;-13.48;84.35
63819;BME280;49970;54.976;73.248;2024-01-30T00:16:23;101326.06;;;-13.48;83.76
63819;BME280;49970;54.976;73.248;2024-01-30T00:18:52;101293.16;;;-13.63;83.25
63819;BME280;49970;54.976;73.248;2024-01-30T00:21:19;101301.22;;;-13.54;83.18
63819;BME280;49970;54.976;73.248;2024-01-30T00:23:46;101301.28;;;-13.52;83.22
63819;BME280;49970;54.976;73.248;2024-01-30T00:26:13;101299.72;;;-13.49;83.41
63819;BME280;49970;54.976;73.248;2024-01-30T00:28:41;101299.91;;;-13.44;83.63
63819;BME280;49970;54.976;73.248;2024-01-30T00:31:08;101304.06;;;-13.46;83.75
63819;BME280;49970;54.976;73.248;2024-01-30T00:33:38;101306.75;;;-13.43;84.56
63819;BME280;49970;54.976;73.248;2024-01-30T00:36:09;101298.03;;;-13.48;84.15
63819;BME280;49970;54.976;73.248;2024-01-30T00:38:36;101296.22;;;-13.51;83.56
63819;BME280;49970;54.976;73.248;2024-01-30T00:41:07;101295.38;;;-13.51;84.25
63819;BME280;49970;54.976;73.248;2024-01-30T00:43:34;101292.75;;;-13.53;83.20
63819;BME280;49970;54.976;73.248;2024-01-30T00:46:00;101309.91;;;-13.49;83.08
63819;BME280;49970;54.976;73.248;2024-01-30T00:48:26;101302.88;;;-13.54;83.01
63819;BME280;49970;54.976;73.248;2024-01-30T00:50:53;101310.59;;;-13.53;83.58
63819;BME280;49970;54.976;73.248;2024-01-30T00:53:19;101309.78;;;-13.52;84.40
63819;BME280;49970;54.976;73.248;2024-01-30T00:55:46;101314.00;;;-13.52;83.56
63819;BME280;49970;54.976;73.248;2024-01-30T00:58:13;101319.09;;;-13.52;82.98
63819;BME280;49970;54.976;73.248;2024-01-30T01:00:40;101317.38;;;-13.53;84.17
63819;BME280;49970;54.976;73.248;2024-01-30T01:03:26;101311.41;;;-13.54;82.81
63819;BME280;49970;54.976;73.248;2024-01-30T01:06:38;101316.50;;;-13.54;82.70
63819;BME280;49970;54.976;73.248;2024-01-30T01:09:08;101324.06;;;-13.56;82.71
63819;BME280;49970;54.976;73.248;2024-01-30T01:11:34;101308.78;;;-13.56;84.05
63819;BME280;49970;54.976;73.248;2024-01-30T01:14:01;101305.38;;;-13.56;83.65
63819;BME280;49970;54.976;73.248;2024-01-30T01:16:47;101313.00;;;-13.56;82.67
63819;BME280;49970;54.976;73.248;2024-01-30T01:19:59;101296.59;;;-13.63;83.89
63819;BME280;49970;54.976;73.248;2024-01-30T01:25:55;101302.63;;;-13.61;83.65
63819;BME280;49970;54.976;73.248;2024-01-30T01:28:21;101305.84;;;-13.65;82.61
63819;BME280;49970;54.976;73.248;2024-01-30T01:31:08;101302.44;;;-13.65;84.04
63819;BME280;49970;54.976;73.248;2024-01-30T01:34:21;101314.16;;;-13.69;83.75
63819;BME280;49970;54.976;73.248;2024-01-30T01:36:47;101313.22;;;-13.71;83.94
63819;BME280;49970;54.976;73.248;2024-01-30T01:39:14;101312.34;;;-13.71;84.11
63819;BME280;49970;54.976;73.248;2024-01-30T01:41:41;101318.88;;;-13.78;82.79
63819;BME280;49970;54.976;73.248;2024-01-30T01:44:08;101324.88;;;-13.76;82.69
63819;BME280;49970;54.976;73.248;2024-01-30T01:46:35;101324.84;;;-13.77;83.66
63819;BME280;49970;54.976;73.248;2024-01-30T01:49:04;101328.19;;;-13.78;83.33
63819;BME280;49970;54.976;73.248;2024-01-30T01:51:33;101331.59;;;-13.78;82.38
63819;BME280;49970;54.976;73.248;2024-01-30T01:54:03;101323.00;;;-13.80;83.63
63819;BME280;49970;54.976;73.248;2024-01-30T01:56:31;101318.59;;;-13.84;82.88
63819;BME280;49970;54.976;73.248;2024-01-30T01:59:06;101326.22;;;-13.84;83.75
63819;BME280;49970;54.976;73.248;2024-01-30T02:01:41;101317.59;;;-13.88;82.34
63819;BME280;49970;54.976;73.248;2024-01-30T02:04:08;101325.97;;;-13.90;83.91
63819;BME280;49970;54.976;73.248;2024-01-30T02:06:34;101321.59;;;-13.93;83.81
63819;BME280;49970;54.976;73.248;2024-01-30T02:09:21;101313.91;;;-13.94;82.88
63819;BME280;49970;54.976;73.248;2024-01-30T02:16:22;101318.72;;;-14.00;82.89
63819;BME280;49970;54.976;73.248;2024-01-30T02:19:54;101315.88;;;-14.08;82.48
63819;BME280;49970;54.976;73.248;2024-01-30T02:23:25;101316.44;;;-14.14;82.67
63819;BME280;49970;54.976;73.248;2024-01-30T02:26:56;101322.16;;;-14.19;81.82
63819;BME280;49970;54.976;73.248;2024-01-30T02:33:56;101322.59;;;-14.28;82.30
63819;BME280;49970;54.976;73.248;2024-01-30T02:37:26;101289.09;;;-14.57;82.70
63819;BME280;49970;54.976;73.248;2024-01-30T02:40:38;101308.09;;;-14.50;82.60
63819;BME280;49970;54.976;73.248;2024-01-30T02:43:04;101331.25;;;-14.42;82.27
63819;BME280;49970;54.976;73.248;2024-01-30T02:45:31;101321.69;;;-14.48;82.29
63819;BME280;49970;54.976;73.248;2024-01-30T02:47:57;101321.50;;;-14.52;82.29
63819;BME280;49970;54.976;73.248;2024-01-30T02:50:24;101315.19;;;-14.61;81.48
63819;BME280;49970;54.976;73.248;2024-01-30T02:52:51;101311.84;;;-14.60;82.05
63819;BME280;49970;54.976;73.248;2024-01-30T02:55:18;101315.91;;;-14.63;81.56
63819;BME280;49970;54.976;73.248;2024-01-30T02:57:44;101296.69;;;-14.76;82.35
63819;BME280;49970;54.976;73.248;2024-01-30T03:00:11;101303.44;;;-14.76;82.22
63819;BME280;49970;54.976;73.248;2024-01-30T03:02:37;101312.03;;;-14.74;81.79
63819;BME280;49970;54.976;73.248;2024-01-30T03:05:10;101314.41;;;-14.77;81.93
63819;BME280;49970;54.976;73.248;2024-01-30T03:07:36;101311.81;;;-14.79;81.34
63819;BME280;49970;54.976;73.248;2024-01-30T03:10:23;101287.72;;;-14.87;82.08
63819;BME280;49970;54.976;73.248;2024-01-30T03:13:08;101300.69;;;-14.81;81.71
63819;BME280;49970;54.976;73.248;2024-01-30T03:15:34;101307.38;;;-14.83;81.02
63819;BME280;49970;54.976;73.248;2024-01-30T03:18:02;101285.72;;;-14.93;82.15
63819;BME280;49970;54.976;73.248;2024-01-30T03:20:29;101298.59;;;-14.90;81.94
63819;BME280;49970;54.976;73.248;2024-01-30T03:22:59;101281.19;;;-15.00;82.24
63819;BME280;49970;54.976;73.248;2024-01-30T03:25:28;101304.97;;;-14.80;81.31
63819;BME280;49970;54.976;73.248;2024-01-30T03:27:54;101304.97;;;-14.80;82.05
63819;BME280;49970;54.976;73.248;2024-01-30T03:30:20;101272.00;;;-14.96;81.76
63819;BME280;49970;54.976;73.248;2024-01-30T03:32:47;101286.75;;;-14.89;81.17
63819;BME280;49970;54.976;73.248;2024-01-30T03:35:13;101302.41;;;-14.80;81.38
63819;BME280;49970;54.976;73.248;2024-01-30T03:37:39;101293.72;;;-14.85;81.06
63819;BME280;49970;54.976;73.248;2024-01-30T03:40:06;101306.84;;;-14.76;82.05
63819;BME280;49970;54.976;73.248;2024-01-30T03:42:33;101287.09;;;-14.82;81.86
63819;BME280;49970;54.976;73.248;2024-01-30T03:45:05;101297.63;;;-14.74;82.39
63819;BME280;49970;54.976;73.248;2024-01-30T03:47:32;101301.00;;;-14.75;81.12
63819;BME280;49970;54.976;73.248;2024-01-30T03:49:58;101300.09;;;-14.75;81.08
63819;BME280;49970;54.976;73.248;2024-01-30T03:52:24;101295.75;;;-14.78;81.10
63819;BME280;49970;54.976;73.248;2024-01-30T03:58:25;101290.53;;;-14.81;81.69
63819;BME280;49970;54.976;73.248;2024-01-30T04:01:56;101282.91;;;-14.81;81.00
63819;BME280;49970;54.976;73.248;2024-01-30T04:05:27;101284.41;;;-14.85;81.00
63819;BME280;49970;54.976;73.248;2024-01-30T04:09:00;101287.75;;;-14.86;81.57
63819;BME280;49970;54.976;73.248;2024-01-30T04:12:12;101294.53;;;-14.86;80.58
63819;BME280;49970;54.976;73.248;2024-01-30T04:14:43;101301.28;;;-14.87;81.57
63819;BME280;49970;54.976;73.248;2024-01-30T04:17:15;101287.75;;;-14.86;81.55
63819;BME280;49970;54.976;73.248;2024-01-30T04:19:46;101286.97;;;-14.85;80.93
63819;BME280;49970;54.976;73.248;2024-01-30T04:22:15;101291.31;;;-14.82;81.09
63819;BME280;49970;54.976;73.248;2024-01-30T04:24:52;101287.06;;;-14.83;81.21
63819;BME280;49970;54.976;73.248;2024-01-30T04:27:22;101294.75;;;-14.82;80.68
63819;BME280;49970;54.976;73.248;2024-01-30T04:29:52;101284.63;;;-14.80;81.70
63819;BME280;49970;54.976;73.248;2024-01-30T04:32:23;101295.66;;;-14.79;81.24
63819;BME280;49970;54.976;73.248;2024-01-30T04:34:53;101287.91;;;-14.83;81.47
63819;BME280;49970;54.976;73.248;2024-01-30T04:37:27;101289.66;;;-14.82;80.51
63819;BME280;49970;54.976;73.248;2024-01-30T04:39:59;101282.84;;;-14.83;81.26
63819;BME280;49970;54.976;73.248;2024-01-30T04:42:30;101292.19;;;-14.82;81.60
63819;BME280;49970;54.976;73.248;2024-01-30T04:45:01;101297.28;;;-14.82;81.49
63819;BME280;49970;54.976;73.248;2024-01-30T04:47:31;101288.78;;;-14.82;80.96
63819;BME280;49970;54.976;73.248;2024-01-30T04:50:08;101293.06;;;-14.81;81.43
63819;BME280;49970;54.976;73.248;2024-01-30T04:52:37;101290.56;;;-14.79;81.30
63819;BME280;49970;54.976;73.248;2024-01-30T04:55:08;101255.81;;;-14.98;81.54
63819;BME280;49970;54.976;73.248;2024-01-30T04:57:39;101291.47;;;-14.79;81.67
63819;BME280;49970;54.976;73.248;2024-01-30T05:00:11;101285.28;;;-14.84;80.67
63819;BME280;49970;54.976;73.248;2024-01-30T05:02:41;101284.56;;;-14.82;81.27
63819;BME280;49970;54.976;73.248;2024-01-30T05:05:09;101290.66;;;-14.78;80.60
63819;BME280;49970;54.976;73.248;2024-01-30T05:07:41;101291.59;;;-14.76;81.38
63819;BME280;49970;54.976;73.248;2024-01-30T05:10:12;101290.72;;;-14.76;81.65
63819;BME280;49970;54.976;73.248;2024-01-30T05:12:41;101287.38;;;-14.75;81.38
63819;BME280;49970;54.976;73.248;2024-01-30T05:15:13;101279.63;;;-14.78;81.14
63819;BME280;49970;54.976;73.248;2024-01-30T05:17:44;101285.28;;;-14.66;81.69
63819;BME280;49970;54.976;73.248;2024-01-30T05:20:19;101274.25;;;-14.67;80.91
63819;BME280;49970;54.976;73.248;2024-01-30T05:22:48;101284.94;;;-14.54;81.69
63819;BME280;49970;54.976;73.248;2024-01-30T05:25:19;101285.91;;;-14.52;81.16
63819;BME280;49970;54.976;73.248;2024-01-30T05:27:50;101288.78;;;-14.45;81.53
63819;BME280;49970;54.976;73.248;2024-01-30T05:30:19;101270.44;;;-14.57;80.98
63819;BME280;49970;54.976;73.248;2024-01-30T05:32:49;101290.56;;;-14.42;81.13
63819;BME280;49970;54.976;73.248;2024-01-30T05:35:19;101295.00;;;-14.38;80.54
63819;BME280;49970;54.976;73.248;2024-01-30T05:37:51;101300.06;;;-14.38;82.07
63819;BME280;49970;54.976;73.248;2024-01-30T05:40:20;101292.38;;;-14.40;81.68
63819;BME280;49970;54.976;73.248;2024-01-30T05:42:52;101300.81;;;-14.41;80.71
63819;BME280;49970;54.976;73.248;2024-01-30T05:45:23;101296.59;;;-14.40;81.07
63819;BME280;49970;54.976;73.248;2024-01-30T05:47:53;101281.19;;;-14.43;80.38
63819;BME280;49970;54.976;73.248;2024-01-30T05:50:25;101301.94;;;-14.34;80.56
63819;BME280;49970;54.976;73.248;2024-01-30T05:52:54;101284.97;;;-14.35;80.70
63819;BME280;49970;54.976;73.248;2024-01-30T05:55:27;101281.81;;;-14.29;81.79
63819;BME280;49970;54.976;73.248;2024-01-30T05:58:01;101256.81;;;-14.38;80.68
63819;BME280;49970;54.976;73.248;2024-01-30T06:00:31;101288.34;;;-14.17;82.14
63819;BME280;49970;54.976;73.248;2024-01-30T06:03:02;101286.78;;;-14.13;82.31
63819;BME280;49970;54.976;73.248;2024-01-30T06:05:32;101279.22;;;-14.12;81.75
63819;BME280;49970;54.976;73.248;2024-01-30T06:08:10;101278.56;;;-14.08;81.72
63819;BME280;49970;54.976;73.248;2024-01-30T06:10:40;101278.66;;;-14.04;81.30
63819;BME280;49970;54.976;73.248;2024-01-30T06:13:28;101278.00;;;-14.00;81.03
63819;BME280;49970;54.976;73.248;2024-01-30T06:16:59;101267.94;;;-13.97;81.66
63819;BME280;49970;54.976;73.248;2024-01-30T06:20:10;101255.66;;;-14.08;81.17
63819;BME280;49970;54.976;73.248;2024-01-30T06:22:36;101264.69;;;-13.95;81.30
63819;BME280;49970;54.976;73.248;2024-01-30T06:25:03;101258.81;;;-13.92;81.91
63819;BME280;49970;54.976;73.248;2024-01-30T06:27:29;101259.78;;;-13.90;80.55
63819;BME280;49970;54.976;73.248;2024-01-30T06:29:56;101246.09;;;-13.92;82.14
63819;BME280;49970;54.976;73.248;2024-01-30T06:32:22;101245.50;;;-13.87;81.02
63819;BME280;49970;54.976;73.248;2024-01-30T06:34:48;101229.94;;;-13.93;80.89
63819;BME280;49970;54.976;73.248;2024-01-30T06:37:15;101237.88;;;-13.87;81.99
63819;BME280;49970;54.976;73.248;2024-01-30T06:39:41;101232.81;;;-13.85;81.01
63819;BME280;49970;54.976;73.248;2024-01-30T06:42:07;101216.50;;;-13.90;80.45
63819;BME280;49970;54.976;73.248;2024-01-30T06:44:34;101230.47;;;-13.81;81.41
63819;BME280;49970;54.976;73.248;2024-01-30T06:47:00;101225.50;;;-13.77;81.41
63819;BME280;49970;54.976;73.248;2024-01-30T06:49:29;101224.69;;;-13.76;81.27
63819;BME280;49970;54.976;73.248;2024-01-30T06:52:02;101227.38;;;-13.73;81.26
63819;BME280;49970;54.976;73.248;2024-01-30T06:54:28;101232.53;;;-13.72;80.41
63819;BME280;49970;54.976;73.248;2024-01-30T06:56:54;101241.03;;;-13.71;81.18
63819;BME280;49970;54.976;73.248;2024-01-30T06:59:21;101206.69;;;-13.81;81.50
63819;BME280;49970;54.976;73.248;2024-01-30T07:01:47;101220.66;;;-13.71;80.47
63819;BME280;49970;54.976;73.248;2024-01-30T07:04:13;101225.88;;;-13.68;80.50
63819;BME280;49970;54.976;73.248;2024-01-30T07:06:40;101227.63;;;-13.67;81.05
63819;BME280;49970;54.976;73.248;2024-01-30T07:09:06;101224.28;;;-13.66;80.67
63819;BME280;49970;54.976;73.248;2024-01-30T07:11:32;101224.28;;;-13.66;81.60
63819;BME280;49970;54.976;73.248;2024-01-30T07:13:58;101228.72;;;-13.62;81.53
63819;BME280;49970;54.976;73.248;2024-01-30T07:16:25;101231.34;;;-13.59;81.46
63819;BME280;49970;54.976;73.248;2024-01-30T07:18:51;101223.91;;;-13.54;80.91
63819;BME280;49970;54.976;73.248;2024-01-30T07:21:18;101231.63;;;-13.53;81.74
63819;BME280;49970;54.976;73.248;2024-01-30T07:23:44;101230.94;;;-13.49;82.23
63819;BME280;49970;54.976;73.248;2024-01-30T07:26:11;101222.44;;;-13.49;80.85
63819;BME280;49970;54.976;73.248;2024-01-30T07:28:39;101221.56;;;-13.50;81.93
63819;BME280;49970;54.976;73.248;2024-01-30T07:31:05;101211.97;;;-13.56;81.89
63819;BME280;49970;54.976;73.248;2024-01-30T07:33:32;101220.78;;;-13.47;81.13
63819;BME280;49970;54.976;73.248;2024-01-30T07:35:58;101209.69;;;-13.49;81.20
63819;BME280;49970;54.976;73.248;2024-01-30T07:38:25;101207.00;;;-13.52;81.90
63819;BME280;49970;54.976;73.248;2024-01-30T07:40:53;101220.94;;;-13.44;81.03
63819;BME280;49970;54.976;73.248;2024-01-30T07:43:24;101210.59;;;-13.47;80.91
63819;BME280;49970;54.976;73.248;2024-01-30T07:45:50;101212.47;;;-13.43;81.03
63819;BME280;49970;54.976;73.248;2024-01-30T07:48:17;101211.56;;;-13.45;81.20
63819;BME280;49970;54.976;73.248;2024-01-30T07:50:43;101213.19;;;-13.46;82.15
63819;BME280;49970;54.976;73.248;2024-01-30T07:53:10;101208.19;;;-13.44;81.03
63819;BME280;49970;54.976;73.248;2024-01-30T07:55:36;101209.97;;;-13.42;80.50
63819;BME280;49970;54.976;73.248;2024-01-30T07:58:03;101173.06;;;-13.51;80.21
63819;BME280;49970;54.976;73.248;2024-01-30T08:00:30;101197.44;;;-13.37;80.96
63819;BME280;49970;54.976;73.248;2024-01-30T08:02:57;101183.53;;;-13.45;82.21
63819;BME280;49970;54.976;73.248;2024-01-30T08:05:24;101187.28;;;-13.36;81.01
63819;BME280;49970;54.976;73.248;2024-01-30T08:07:51;101187.44;;;-13.33;80.77
63819;BME280;49970;54.976;73.248;2024-01-30T08:10:17;101183.38;;;-13.27;80.48
63819;BME280;49970;54.976;73.248;2024-01-30T08:12:46;101182.56;;;-13.26;81.39
63819;BME280;49970;54.976;73.248;2024-01-30T08:15:17;101173.44;;;-13.20;81.03
63819;BME280;49970;54.976;73.248;2024-01-30T08:17:44;101171.06;;;-13.15;81.62
63819;BME280;49970;54.976;73.248;2024-01-30T08:20:11;101158.31;;;-13.15;81.93
63819;BME280;49970;54.976;73.248;2024-01-30T08:22:38;101164.47;;;-13.10;81.86
63819;BME280;49970;54.976;73.248;2024-01-30T08:25:06;101128.34;;;-13.21;81.68
63819;BME280;49970;54.976;73.248;2024-01-30T08:27:38;101149.13;;;-13.12;80.50
63819;BME280;49970;54.976;73.248;2024-01-30T08:30:06;101143.03;;;-13.15;81.26
63819;BME280;49970;54.976;73.248;2024-01-30T08:32:33;101156.63;;;-13.15;81.21
63819;BME280;49970;54.976;73.248;2024-01-30T08:34:59;101128.03;;;-13.30;81.34
63819;BME280;49970;54.976;73.248;2024-01-30T08:37:36;101136.13;;;-13.18;80.74
63819;BME280;49970;54.976;73.248;2024-01-30T08:40:03;101144.81;;;-13.13;81.21
63819;BME280;49970;54.976;73.248;2024-01-30T08:42:36;101141.34;;;-13.15;81.38
63819;BME280;49970;54.976;73.248;2024-01-30T08:45:04;101148.34;;;-13.09;81.77
63819;BME280;49970;54.976;73.248;2024-01-30T08:47:31;101150.28;;;-13.03;80.86
63819;BME280;49970;54.976;73.248;2024-01-30T08:49:57;101140.97;;;-13.01;81.01
63819;BME280;49970;54.976;73.248;2024-01-30T08:52:23;101148.69;;;-13.00;80.98
63819;BME280;49970;54.976;73.248;2024-01-30T08:54:50;101149.66;;;-12.96;81.21
63819;BME280;49970;54.976;73.248;2024-01-30T08:57:17;101130.56;;;-13.08;82.42
63819;BME280;49970;54.976;73.248;2024-01-30T08:59:44;101149.75;;;-12.95;81.51
63819;BME280;49970;54.976;73.248;2024-01-30T09:02:13;101147.94;;;-12.97;81.12
63819;BME280;49970;54.976;73.248;2024-01-30T09:04:42;101149.75;;;-12.95;81.43
63819;BME280;49970;54.976;73.248;2024-01-30T09:07:09;101140.97;;;-13.01;81.37
63819;BME280;49970;54.976;73.248;2024-01-30T09:09:38;101150.44;;;-12.99;80.70
63819;BME280;49970;54.976;73.248;2024-01-30T09:12:06;101151.13;;;-13.03;81.46
63819;BME280;49970;54.976;73.248;2024-01-30T09:14:36;101143.31;;;-13.08;80.99
63819;BME280;49970;54.976;73.248;2024-01-30T09:17:03;101153.69;;;-13.03;80.66
63819;BME280;49970;54.976;73.248;2024-01-30T09:19:49;101149.38;;;-13.04;82.29
63819;BME280;49970;54.976;73.248;2024-01-30T09:22:15;101144.34;;;-13.02;82.14
63819;BME280;49970;54.976;73.248;2024-01-30T09:24:42;101131.34;;;-13.09;82.08
63819;BME280;49970;54.976;73.248;2024-01-30T09:27:09;101131.47;;;-13.06;81.95
63819;BME280;49970;54.976;73.248;2024-01-30T09:29:35;101144.47;;;-12.99;80.74
63819;BME280;49970;54.976;73.248;2024-01-30T09:32:04;101129.78;;;-13.05;81.11
63819;BME280;49970;54.976;73.248;2024-01-30T09:34:33;101138.59;;;-12.97;81.14
63819;BME280;49970;54.976;73.248;2024-01-30T09:36:59;101136.19;;;-12.94;81.03
63819;BME280;49970;54.976;73.248;2024-01-30T09:39:26;101131.78;;;-12.98;81.86
63819;BME280;49970;54.976;73.248;2024-01-30T09:42:02;101133.75;;;-12.91;81.46
63819;BME280;49970;54.976;73.248;2024-01-30T09:44:29;101134.72;;;-12.87;82.19
63819;BME280;49970;54.976;73.248;2024-01-30T09:46:57;101141.56;;;-12.86;81.94
63819;BME280;49970;54.976;73.248;2024-01-30T09:49:32;101139.19;;;-12.82;82.29
63819;BME280;49970;54.976;73.248;2024-01-30T09:51:59;101133.28;;;-12.79;80.93
63819;BME280;49970;54.976;73.248;2024-01-30T09:54:30;101138.47;;;-12.77;81.12
63819;BME280;49970;54.976;73.248;2024-01-30T09:56:59;101122.84;;;-12.87;81.76
63819;BME280;49970;54.976;73.248;2024-01-30T09:59:27;101138.50;;;-12.76;82.31
63819;BME280;49970;54.976;73.248;2024-01-30T10:01:54;101108.00;;;-12.97;81.54
63819;BME280;49970;54.976;73.248;2024-01-30T10:04:20;101143.75;;;-12.73;82.37
63819;BME280;49970;54.976;73.248;2024-01-30T10:06:47;101131.69;;;-12.77;82.49
63819;BME280;49970;54.976;73.248;2024-01-30T10:09:14;101136.09;;;-12.73;81.78
63819;BME280;49970;54.976;73.248;2024-01-30T10:11:40;101130.16;;;-12.72;81.95
63819;BME280;49970;54.976;73.248;2024-01-30T10:14:06;101138.75;;;-12.70;82.53
63819;BME280;49970;54.976;73.248;2024-01-30T10:16:34;101128.44;;;-12.73;82.38
63819;BME280;49970;54.976;73.248;2024-01-30T10:19:00;101136.94;;;-12.72;81.63
63819;BME280;49970;54.976;73.248;2024-01-30T10:21:31;101123.75;;;-12.85;81.59
63819;BME280;49970;54.976;73.248;2024-01-30T10:23:58;101143.63;;;-12.76;81.75
63819;BME280;49970;54.976;73.248;2024-01-30T10:26:24;101148.72;;;-12.76;81.52
63819;BME280;49970;54.976;73.248;2024-01-30T10:28:50;101144.44;;;-12.77;82.57
63819;BME280;49970;54.976;73.248;2024-01-30T10:31:17;101120.13;;;-12.91;81.89
63819;BME280;49970;54.976;73.248;2024-01-30T10:33:48;101146.00;;;-12.81;81.24
63819;BME280;49970;54.976;73.248;2024-01-30T10:36:14;101112.97;;;-13.00;82.17
63819;BME280;49970;54.976;73.248;2024-01-30T10:38:52;101139.84;;;-12.87;82.50
63819;BME280;49970;54.976;73.248;2024-01-30T10:41:26;101138.94;;;-12.88;80.89
63819;BME280;49970;54.976;73.248;2024-01-30T10:44:11;101140.53;;;-12.91;80.79
63819;BME280;49970;54.976;73.248;2024-01-30T10:46:38;101139.63;;;-12.92;81.81
63819;BME280;49970;54.976;73.248;2024-01-30T10:49:06;101138.69;;;-12.95;81.07
63819;BME280;49970;54.976;73.248;2024-01-30T10:51:34;101146.34;;;-12.95;81.71
63819;BME280;49970;54.976;73.248;2024-01-30T10:54:02;101143.69;;;-12.97;81.34
63819;BME280;49970;54.976;73.248;2024-01-30T10:56:29;101141.16;;;-12.97;82.29
63819;BME280;49970;54.976;73.248;2024-01-30T10:58:57;101147.13;;;-12.96;81.52
63819;BME280;49970;54.976;73.248;2024-01-30T11:01:24;101146.25;;;-12.97;82.30
63819;BME280;49970;54.976;73.248;2024-01-30T11:03:52;101152.22;;;-12.96;81.60
63819;BME280;49970;54.976;73.248;2024-01-30T11:06:22;101140.16;;;-13.00;82.51
63819;BME280;49970;54.976;73.248;2024-01-30T11:09:03;101144.34;;;-13.02;82.66
63819;BME280;49970;54.976;73.248;2024-01-30T11:11:55;101144.34;;;-13.02;81.67
63819;BME280;49970;54.976;73.248;2024-01-30T11:14:26;101158.09;;;-12.99;81.93
63819;BME280;49970;54.976;73.248;2024-01-30T11:16:59;101159.78;;;-12.99;81.79
63819;BME280;49970;54.976;73.248;2024-01-30T11:19:26;101158.09;;;-12.99;81.69
63819;BME280;49970;54.976;73.248;2024-01-30T11:21:54;101152.13;;;-12.99;82.10
63819;BME280;49970;54.976;73.248;2024-01-30T11:24:20;101155.38;;;-13.03;81.75
63819;BME280;49970;54.976;73.248;2024-01-30T11:26:55;101149.56;;;-12.99;82.04
63819;BME280;49970;54.976;73.248;2024-01-30T11:29:30;101139.31;;;-13.01;82.04
63819;BME280;49970;54.976;73.248;2024-01-30T11:31:58;101111.56;;;-13.16;82.33
63819;BME280;49970;54.976;73.248;2024-01-30T11:34:44;101136.63;;;-13.04;81.11
63819;BME280;49970;54.976;73.248;2024-01-30T11:37:25;101141.69;;;-13.06;81.97
63819;BME280;49970;54.976;73.248;2024-01-30T11:39:58;101133.91;;;-13.09;81.74
63819;BME280;49970;54.976;73.248;2024-01-30T11:42:27;101127.03;;;-13.11;81.16
63819;BME280;49970;54.976;73.248;2024-01-30T11:44:59;101121.00;;;-13.13;82.61
63819;BME280;49970;54.976;73.248;2024-01-30T11:47:28;101122.91;;;-13.08;82.20
63819;BME280;49970;54.976;73.248;2024-01-30T11:49:57;101128.03;;;-13.08;82.26
63819;BME280;49970;54.976;73.248;2024-01-30T11:52:35;101116.06;;;-13.09;81.80
63819;BME280;49970;54.976;73.248;2024-01-30T11:55:08;101119.44;;;-13.10;81.40
63819;BME280;49970;54.976;73.248;2024-01-30T11:57:38;101119.31;;;-13.13;81.61
63819;BME280;49970;54.976;73.248;2024-01-30T12:00:15;101123.53;;;-13.13;82.43
63819;BME280;49970;54.976;73.248;2024-01-30T12:02:54;101122.63;;;-13.15;82.24
63819;BME280;49970;54.976;73.248;2024-01-30T12:05:25;101126.88;;;-13.16;81.45
63819;BME280;49970;54.976;73.248;2024-01-30T12:07:55;101115.69;;;-13.19;82.05
63819;BME280;49970;54.976;73.248;2024-01-30T12:10:33;101120.94;;;-13.15;82.50
63819;BME280;49970;54.976;73.248;2024-01-30T12:13:06;101127.66;;;-13.17;82.47
63819;BME280;49970;54.976;73.248;2024-01-30T12:15:35;101119.84;;;-13.21;82.68
63819;BME280;49970;54.976;73.248;2024-01-30T12:18:26;101126.75;;;-13.19;82.59
63819;BME280;49970;54.976;73.248;2024-01-30T12:20:59;101112.00;;;-13.27;81.70
63819;BME280;49970;54.976;73.248;2024-01-30T12:23:46;101123.19;;;-13.24;82.23
63819;BME280;49970;54.976;73.248;2024-01-30T12:26:18;101123.19;;;-13.24;81.27
63819;BME280;49970;54.976;73.248;2024-01-30T12:29:03;101129.03;;;-13.26;81.23
63819;BME280;49970;54.976;73.248;2024-01-30T12:31:52;101122.25;;;-13.26;82.78
63819;BME280;49970;54.976;73.248;2024-01-30T12:34:42;101122.25;;;-13.26;82.89
63819;BME280;49970;54.976;73.248;2024-01-30T12:37:12;101121.38;;;-13.26;81.94
63819;BME280;49970;54.976;73.248;2024-01-30T12:39:47;101114.56;;;-13.27;81.31
63819;BME280;49970;54.976;73.248;2024-01-30T12:42:18;101114.59;;;-13.26;81.40
63819;BME280;49970;54.976;73.248;2024-01-30T12:45:07;101118.97;;;-13.23;81.85
63819;BME280;49970;54.976;73.248;2024-01-30T12:47:38;101095.69;;;-13.33;81.89
63819;BME280;49970;54.976;73.248;2024-01-30T12:50:08;101097.72;;;-13.24;82.07
63819;BME280;49970;54.976;73.248;2024-01-30T12:52:42;101121.66;;;-13.19;82.47
63819;BME280;49970;54.976;73.248;2024-01-30T12:55:23;101108.84;;;-13.20;81.62
63819;BME280;49970;54.976;73.248;2024-01-30T12:58:00;101105.41;;;-13.21;83.00
63819;BME280;49970;54.976;73.248;2024-01-30T13:00:34;101086.53;;;-13.27;82.64
63819;BME280;49970;54.976;73.248;2024-01-30T13:03:05;101108.06;;;-13.18;81.81
63819;BME280;49970;54.976;73.248;2024-01-30T13:05:37;101102.97;;;-13.18;81.79
63819;BME280;49970;54.976;73.248;2024-01-30T13:08:05;101097.88;;;-13.18;82.09
63819;BME280;49970;54.976;73.248;2024-01-30T13:10:35;101101.28;;;-13.17;83.22
63819;BME280;49970;54.976;73.248;2024-01-30T13:13:04;101090.22;;;-13.18;81.75